createdAt,value
2022-08-21T00:04:57.210Z,13.80
2022-08-21T00:10:01.125Z,13.70
2022-08-21T00:15:06.715Z,13.60
2022-08-21T00:20:15.518Z,13.50
2022-08-21T00:25:24.231Z,13.40
2022-08-21T00:30:37.782Z,13.30
2022-08-21T00:35:44.227Z,13.30
2022-08-21T00:40:49.746Z,13.20
2022-08-21T00:51:27.616Z,13.20
2022-08-21T00:56:31.045Z,13.10
2022-08-21T01:01:35.956Z,12.90
2022-08-21T01:06:39.197Z,12.90
2022-08-21T01:11:44.065Z,12.80
2022-08-21T01:16:52.043Z,12.80
2022-08-21T01:21:58.015Z,12.70
2022-08-21T01:27:02.008Z,12.70
2022-08-21T01:32:08.645Z,12.70
2022-08-21T01:37:14.125Z,12.60
2022-08-21T01:42:18.839Z,12.50
2022-08-21T01:47:22.108Z,12.50
2022-08-21T01:52:27.084Z,12.40
2022-08-21T01:57:30.344Z,12.40
2022-08-21T02:02:33.587Z,12.30
2022-08-21T02:07:41.279Z,12.20
2022-08-21T02:12:44.637Z,12.10
2022-08-21T02:17:50.545Z,12.00
2022-08-21T02:22:55.329Z,12.00
2022-08-21T02:28:01.452Z,11.90
2022-08-21T02:33:04.658Z,11.90
2022-08-21T02:38:12.900Z,11.80
2022-08-21T02:43:17.230Z,11.90
2022-08-21T02:48:24.179Z,11.80
2022-08-21T02:53:29.991Z,11.70
2022-08-21T02:58:41.377Z,11.60
2022-08-21T03:03:46.635Z,11.60
2022-08-21T03:08:51.990Z,11.70
2022-08-21T03:13:55.311Z,11.60
2022-08-21T03:18:58.663Z,11.60
2022-08-21T03:24:04.265Z,11.60
2022-08-21T03:29:08.446Z,11.60
2022-08-21T03:34:11.833Z,11.60
2022-08-21T03:39:18.759Z,11.60
2022-08-21T03:44:22.007Z,11.50
2022-08-21T03:49:25.314Z,11.50
2022-08-21T03:54:30.067Z,11.40
2022-08-21T03:59:33.519Z,11.40
2022-08-21T04:04:37.182Z,11.40
2022-08-21T04:09:41.812Z,11.30
2022-08-21T04:14:45.596Z,11.20
2022-08-21T04:19:53.548Z,11.10
2022-08-21T04:24:58.476Z,11.10
2022-08-21T04:30:02.121Z,11.10
2022-08-21T04:35:08.251Z,11.00
2022-08-21T04:40:15.337Z,11.00
2022-08-21T04:45:23.093Z,11.10
2022-08-21T04:50:29.951Z,11.00
2022-08-21T04:55:35.017Z,11.10
2022-08-21T05:00:38.614Z,11.20
2022-08-21T05:05:43.736Z,11.20
2022-08-21T05:10:48.505Z,11.40
2022-08-21T05:15:51.687Z,11.60
2022-08-21T05:20:54.887Z,11.80
2022-08-21T05:25:59.464Z,11.90
2022-08-21T05:31:03.063Z,12.10
2022-08-21T05:36:06.690Z,12.20
2022-08-21T05:41:11.284Z,12.50
2022-08-21T05:46:14.506Z,12.70
2022-08-21T05:51:18.656Z,12.80
2022-08-21T05:56:23.303Z,13.00
2022-08-21T06:01:26.770Z,13.20
2022-08-21T06:06:30.050Z,13.40
2022-08-21T06:11:35.577Z,13.60
2022-08-21T06:16:38.807Z,13.80
2022-08-21T06:21:42.014Z,14.00
2022-08-21T06:26:51.830Z,14.20
2022-08-21T06:31:55.067Z,16.90
2022-08-21T06:36:58.827Z,21.70
2022-08-21T06:42:03.792Z,25.90
2022-08-21T06:47:07.139Z,27.60
2022-08-21T06:52:12.343Z,28.60
2022-08-21T06:57:20.840Z,29.90
2022-08-21T07:02:24.433Z,31.40
2022-08-21T07:07:28.227Z,32.40
2022-08-21T07:12:33.502Z,32.20
2022-08-21T07:17:37.181Z,32.90
2022-08-21T07:22:41.123Z,34.40
2022-08-21T07:27:45.703Z,33.20
2022-08-21T07:32:50.307Z,33.70
2022-08-21T07:37:53.603Z,34.80
2022-08-21T07:42:58.387Z,34.80
2022-08-21T07:48:01.661Z,33.50
2022-08-21T07:53:05.225Z,32.60
2022-08-21T07:58:11.154Z,31.50
2022-08-21T08:03:14.385Z,33.00
2022-08-21T08:08:23.713Z,32.00
2022-08-21T08:13:28.300Z,32.30
2022-08-21T08:18:31.648Z,34.10
2022-08-21T08:23:35.348Z,34.10
2022-08-21T08:28:40.664Z,32.70
2022-08-21T08:33:44.838Z,33.70
2022-08-21T08:38:52.235Z,33.00
2022-08-21T08:44:03.534Z,33.20
2022-08-21T08:49:16.401Z,32.90
2022-08-21T08:54:32.722Z,33.20
2022-08-21T08:59:43.891Z,33.20
2022-08-21T09:04:50.003Z,32.70
2022-08-21T09:10:11.957Z,32.20
2022-08-21T09:15:25.454Z,32.80
2022-08-21T09:20:35.842Z,33.30
2022-08-21T09:25:48.119Z,33.10
2022-08-21T09:30:56.496Z,32.30
2022-08-21T09:36:00.035Z,32.10
2022-08-21T09:41:05.941Z,32.60
2022-08-21T09:46:13.323Z,31.90
2022-08-21T09:51:18.918Z,31.90
2022-08-21T09:56:49.004Z,32.00
2022-08-21T10:01:59.499Z,31.60
2022-08-21T10:07:11.805Z,32.30
2022-08-21T10:12:24.237Z,31.00
2022-08-21T10:17:37.563Z,29.70
2022-08-21T10:22:52.294Z,29.20
2022-08-21T10:28:13.501Z,29.10
2022-08-21T10:33:30.297Z,28.50
2022-08-21T10:39:25.965Z,28.10
2022-08-21T10:44:44.742Z,28.50
2022-08-21T10:49:57.748Z,28.20
2022-08-21T10:55:08.808Z,28.50
2022-08-21T11:00:16.990Z,28.70
2022-08-21T11:05:32.614Z,28.60
2022-08-21T11:10:51.281Z,29.10
2022-08-21T11:16:07.784Z,28.90
2022-08-21T11:21:28.283Z,28.90
2022-08-21T11:26:39.953Z,28.50
2022-08-21T11:31:59.697Z,28.40
2022-08-21T11:37:12.980Z,28.40
2022-08-21T11:42:25.766Z,28.80
2022-08-21T11:47:42.757Z,28.70
2022-08-21T11:52:52.939Z,28.60
2022-08-21T11:58:00.243Z,28.20
2022-08-21T12:03:11.130Z,27.90
2022-08-21T12:08:29.946Z,27.80
2022-08-21T12:13:42.424Z,28.20
2022-08-21T12:18:46.621Z,28.30
2022-08-21T12:24:03.046Z,28.20
2022-08-21T12:34:51.923Z,28.20
2022-08-21T12:40:00.958Z,28.60
2022-08-21T12:45:07.384Z,28.00
2022-08-21T12:50:15.112Z,28.20
2022-08-21T12:55:29.608Z,28.00
2022-08-21T13:00:32.851Z,27.90
2022-08-21T13:05:39.360Z,28.20
2022-08-21T13:10:45.732Z,27.90
2022-08-21T13:15:49.447Z,28.00
2022-08-21T13:20:53.794Z,28.00
2022-08-21T13:25:59.957Z,28.10
2022-08-21T13:31:03.483Z,28.20
2022-08-21T13:36:11.393Z,28.20
2022-08-21T13:41:23.586Z,27.60
2022-08-21T13:46:30.001Z,27.50
2022-08-21T13:51:34.846Z,27.50
2022-08-21T13:56:46.753Z,27.60
2022-08-21T14:01:55.816Z,27.90
2022-08-21T14:06:59.225Z,28.10
2022-08-21T14:12:22.282Z,27.70
2022-08-21T14:17:36.337Z,27.50
2022-08-21T14:22:47.136Z,27.40
2022-08-21T14:27:54.759Z,27.40
2022-08-21T14:32:58.449Z,27.60
2022-08-21T14:38:01.903Z,27.70
2022-08-21T14:43:06.599Z,27.50
2022-08-21T14:48:10.007Z,27.30
2022-08-21T14:53:13.332Z,27.30
2022-08-21T14:58:18.027Z,27.30
2022-08-21T15:03:22.698Z,27.30
2022-08-21T15:08:28.161Z,27.20
2022-08-21T15:13:33.313Z,27.00
2022-08-21T15:18:36.741Z,26.80
2022-08-21T15:23:43.669Z,26.90
2022-08-21T15:28:48.788Z,26.80
2022-08-21T15:33:52.686Z,26.80
2022-08-21T15:38:55.853Z,26.70
2022-08-21T15:44:00.474Z,26.50
2022-08-21T15:49:03.818Z,26.70
2022-08-21T15:54:07.148Z,26.70
2022-08-21T15:59:19.188Z,26.50
2022-08-21T16:04:25.781Z,26.30
2022-08-21T16:09:29.077Z,26.40
2022-08-21T16:14:37.240Z,26.30
2022-08-21T16:19:40.666Z,26.20
2022-08-21T16:24:44.136Z,26.00
2022-08-21T16:29:50.278Z,26.00
2022-08-21T16:34:53.580Z,25.80
2022-08-21T16:39:58.008Z,25.60
2022-08-21T16:45:04.742Z,25.60
2022-08-21T16:50:09.228Z,25.40
2022-08-21T16:55:13.626Z,25.20
2022-08-21T17:00:23.075Z,25.00
2022-08-21T17:05:30.753Z,24.80
2022-08-21T17:10:34.458Z,24.60
2022-08-21T17:15:40.643Z,24.40
2022-08-21T17:20:44.397Z,24.30
2022-08-21T17:25:53.907Z,24.00
2022-08-21T17:31:02.445Z,23.80
2022-08-21T17:36:14.414Z,23.50
2022-08-21T17:41:20.652Z,23.30
2022-08-21T17:46:30.099Z,23.10
2022-08-21T17:51:33.601Z,22.80
2022-08-21T17:56:40.658Z,22.60
2022-08-21T18:01:47.200Z,22.30
2022-08-21T18:06:50.457Z,22.00
2022-08-21T18:11:53.683Z,21.60
2022-08-21T18:17:00.209Z,21.30
2022-08-21T18:22:06.873Z,20.90
2022-08-21T18:27:15.764Z,20.60
2022-08-21T18:32:31.763Z,20.30
2022-08-21T18:37:35.877Z,20.00
2022-08-21T18:42:43.291Z,19.70
2022-08-21T18:48:02.071Z,19.50
2022-08-21T18:53:24.279Z,19.30
2022-08-21T18:58:30.162Z,19.10
2022-08-21T19:03:35.075Z,19.00
2022-08-21T19:08:38.361Z,18.80
2022-08-21T19:13:43.229Z,18.70
2022-08-21T19:18:50.609Z,18.60
2022-08-21T19:23:54.014Z,18.40
2022-08-21T19:28:59.857Z,18.30
2022-08-21T19:34:08.196Z,18.10
2022-08-21T19:39:12.329Z,18.00
2022-08-21T19:44:23.661Z,17.80
2022-08-21T19:54:55.003Z,17.50
2022-08-21T19:59:58.716Z,17.30
2022-08-21T20:05:03.463Z,17.10
2022-08-21T20:10:07.884Z,17.00
2022-08-21T20:15:14.743Z,16.90
2022-08-21T20:20:23.615Z,17.00
2022-08-21T20:25:29.814Z,16.90
2022-08-21T20:30:33.557Z,16.90
2022-08-21T20:35:38.364Z,16.80
2022-08-21T20:40:41.868Z,16.80
2022-08-21T20:45:45.669Z,16.80
2022-08-21T20:50:54.297Z,16.90
2022-08-21T20:55:59.387Z,16.90
2022-08-21T21:01:07.906Z,16.90
2022-08-21T21:06:17.586Z,16.60
2022-08-21T21:11:25.835Z,16.40
2022-08-21T21:16:34.317Z,16.20
2022-08-21T21:21:41.972Z,16.10
2022-08-21T21:26:59.038Z,16.10
2022-08-21T21:32:02.439Z,15.90
2022-08-21T21:37:09.608Z,15.70
2022-08-21T21:42:29.806Z,15.70
2022-08-21T21:47:48.801Z,15.70
2022-08-21T21:53:12.570Z,15.50
2022-08-21T21:58:38.005Z,15.40
2022-08-21T22:03:48.407Z,15.30
2022-08-21T22:09:02.817Z,15.10
2022-08-21T22:14:12.523Z,14.90
2022-08-21T22:19:20.464Z,14.80
2022-08-21T22:24:29.925Z,14.60
2022-08-21T22:29:49.676Z,14.60
2022-08-21T22:35:04.054Z,14.50
2022-08-21T22:40:10.439Z,14.50
2022-08-21T22:45:22.506Z,14.50
2022-08-21T22:50:31.884Z,14.50
2022-08-21T22:55:43.628Z,14.50
2022-08-21T23:00:53.701Z,14.60
2022-08-21T23:06:00.562Z,14.50
2022-08-21T23:11:12.743Z,14.50
2022-08-21T23:16:47.478Z,14.60
2022-08-21T23:21:58.906Z,14.50
2022-08-21T23:27:14.812Z,14.40
2022-08-21T23:32:40.714Z,14.30
2022-08-21T23:37:55.165Z,14.30
2022-08-21T23:43:11.267Z,14.10
2022-08-21T23:48:29.673Z,14.00
2022-08-21T23:53:41.845Z,13.90
2022-08-21T23:59:04.313Z,13.90
